Time;durP1;ratioP1;P1;durP2;ratioP2;P2;SDS_P1;SDS_P2;PMS_P1;PMS_P2;Temp;Humidity;BMP_temperature;BMP_pressure;BME280_temperature;BME280_humidity;BME280_pressure;Samples;Min_cycle;Max_cycle;Signal;HPM_P1;HPM_P2
2022/09/10 00:01:15;;;;;;;6.60;2.08;;;;;;;17.08;75.65;99732.78;5057498;28;20063;-89
2022/09/10 00:03:43;;;;;;;4.20;1.77;;;;;;;17.09;75.49;99731.59;5050626;28;20056;-89
2022/09/10 00:06:11;;;;;;;4.40;1.55;;;;;;;16.95;75.89;99732.19;5056547;28;20502;-88
2022/09/10 00:08:40;;;;;;;4.50;1.95;;;;;;;16.87;75.91;99722.78;5056153;28;20056;-89
2022/09/10 00:11:10;;;;;;;4.72;2.20;;;;;;;16.93;75.96;99715.66;5057954;28;20056;-88
2022/09/10 00:13:41;;;;;;;3.75;1.70;;;;;;;16.98;75.27;99725.78;5057959;28;20072;-89
2022/09/10 00:16:11;;;;;;;3.67;1.70;;;;;;;16.87;75.71;99722.78;5055749;28;20049;-89
2022/09/10 00:18:39;;;;;;;3.88;1.80;;;;;;;16.86;75.66;99725.97;5057885;28;20049;-89
2022/09/10 00:21:11;;;;;;;5.07;1.98;;;;;;;16.74;76.21;99729.78;5058755;28;20390;-89
2022/09/10 00:23:42;;;;;;;3.22;1.75;;;;;;;16.78;75.73;99731.47;5042823;28;20056;-89
2022/09/10 00:26:13;;;;;;;3.95;1.90;;;;;;;16.83;75.86;99724.72;5043774;28;20045;-90
2022/09/10 00:28:43;;;;;;;5.00;1.95;;;;;;;16.78;75.72;99714.59;5057804;28;20045;-88
2022/09/10 00:31:14;;;;;;;5.50;1.98;;;;;;;16.78;75.99;99725.84;5058665;28;20060;-89
2022/09/10 00:33:41;;;;;;;5.88;2.13;;;;;;;16.73;76.08;99728.13;5058822;28;20045;-89
2022/09/10 00:36:17;;;;;;;3.35;1.80;;;;;;;16.70;76.04;99728.91;5057550;28;20049;-88
2022/09/10 00:38:46;;;;;;;5.38;1.70;;;;;;;16.75;75.43;99725.75;5042523;28;20053;-89
2022/09/10 00:41:15;;;;;;;6.65;2.28;;;;;;;16.56;76.26;99724.63;5058747;28;20409;-90
2022/09/10 00:43:52;;;;;;;6.80;2.00;;;;;;;16.66;76.15;99728.03;5056379;28;20053;-90
2022/09/10 00:46:26;;;;;;;4.43;1.70;;;;;;;16.67;76.02;99718.38;5045088;28;20054;-89
2022/09/10 00:48:56;;;;;;;4.78;1.98;;;;;;;16.61;75.95;99715.09;5052600;28;20053;-89
2022/09/10 00:51:31;;;;;;;2.60;1.65;;;;;;;16.70;76.08;99721.25;5057344;28;20053;-88
2022/09/10 00:54:01;;;;;;;4.30;1.63;;;;;;;16.75;75.52;99709.69;5058492;28;20060;-90
2022/09/10 00:56:39;;;;;;;3.90;1.92;;;;;;;16.64;75.77;99709.50;5058598;28;20049;-90
2022/09/10 00:59:15;;;;;;;5.20;1.88;;;;;;;16.60;76.12;99717.06;5063902;28;20068;-89
2022/09/10 01:01:43;;;;;;;4.65;1.88;;;;;;;16.70;75.58;99723.28;5058480;28;20048;-88
2022/09/10 01:04:11;;;;;;;3.30;1.67;;;;;;;16.79;75.36;99721.00;5049087;28;20072;-89
2022/09/10 01:06:43;;;;;;;5.40;1.75;;;;;;;16.71;75.26;99720.06;5058706;28;20056;-89
2022/09/10 01:09:13;;;;;;;2.40;1.48;;;;;;;16.63;75.47;99719.16;5057780;28;20401;-88
2022/09/10 01:12:09;;;;;;;6.03;2.05;;;;;;;16.77;74.92;99718.56;5057171;28;20049;-89
2022/09/10 01:15:06;;;;;;;4.63;1.60;;;;;;;16.69;74.70;99722.44;5060540;28;20481;-88
2022/09/10 01:17:45;;;;;;;4.60;1.83;;;;;;;16.72;74.57;99704.84;5054713;28;20064;-89
2022/09/10 01:20:45;;;;;;;4.83;1.90;;;;;;;16.61;74.23;99723.53;5057225;28;20064;-88
2022/09/10 01:23:40;;;;;;;3.03;1.50;;;;;;;16.65;74.21;99715.94;5056578;28;20995;-88
2022/09/10 01:26:26;;;;;;;3.00;1.40;;;;;;;16.62;73.87;99723.13;5058644;28;20067;-90
2022/09/10 01:28:59;;;;;;;4.03;1.80;;;;;;;16.56;74.14;99723.81;5056192;28;20060;-88
2022/09/10 01:31:32;;;;;;;3.30;1.60;;;;;;;16.53;73.99;99719.75;5043243;28;20515;-89
2022/09/10 01:34:05;;;;;;;5.10;1.60;;;;;;;16.43;74.14;99721.16;5037355;28;20064;-90
2022/09/10 01:36:39;;;;;;;3.47;1.70;;;;;;;16.23;74.94;99726.03;5037672;28;20409;-90
2022/09/10 01:39:07;;;;;;;4.50;1.95;;;;;;;16.33;74.65;99720.97;5042671;28;20045;-90
2022/09/10 01:41:38;;;;;;;3.55;1.55;;;;;;;16.37;74.28;99721.84;5037462;28;20054;-91
2022/09/10 01:44:31;;;;;;;3.42;1.48;;;;;;;16.39;74.15;99719.47;5039249;28;20414;-88
2022/09/10 01:47:11;;;;;;;3.58;1.58;;;;;;;16.33;74.24;99720.97;5056752;28;20060;-89
2022/09/10 01:49:46;;;;;;;3.25;1.60;;;;;;;16.33;74.19;99724.59;5057757;28;20064;-89
2022/09/10 01:52:27;;;;;;;4.10;1.83;;;;;;;16.42;74.21;99724.34;5057501;28;20056;-89
2022/09/10 01:55:07;;;;;;;4.80;1.60;;;;;;;16.44;73.91;99720.00;5058847;28;20053;-90
2022/09/10 01:57:43;;;;;;;2.72;1.30;;;;;;;16.48;73.68;99734.09;5059115;28;20033;-90
2022/09/10 02:00:14;;;;;;;5.28;2.00;;;;;;;16.50;73.60;99726.09;5051312;28;20048;-92
2022/09/10 02:02:47;;;;;;;3.35;1.77;;;;;;;16.51;73.85;99730.56;5057387;28;20033;-90
2022/09/10 02:05:18;;;;;;;2.90;1.40;;;;;;;16.63;73.46;99730.38;5056626;28;20037;-91
2022/09/10 02:07:48;;;;;;;3.60;1.65;;;;;;;16.47;74.22;99728.88;5055750;28;20478;-90
2022/09/10 02:10:15;;;;;;;3.38;1.40;;;;;;;16.63;73.79;99721.97;5056381;28;20485;-90
2022/09/10 02:12:43;;;;;;;4.18;1.73;;;;;;;16.67;73.70;99715.56;5056365;28;20056;-89
2022/09/10 02:15:12;;;;;;;4.20;1.35;;;;;;;16.74;73.42;99727.78;5054413;28;20503;-90
2022/09/10 02:17:41;;;;;;;2.05;1.23;;;;;;;16.84;73.04;99726.38;5055325;28;20060;-90
2022/09/10 02:20:12;;;;;;;3.30;1.60;;;;;;;16.77;73.10;99717.75;5055985;28;20485;-90
2022/09/10 02:22:42;;;;;;;4.53;1.90;;;;;;;16.72;73.51;99727.31;5056053;28;20059;-91
2022/09/10 02:25:10;;;;;;;2.55;1.50;;;;;;;16.93;72.92;99721.28;5055103;28;20351;-90
2022/09/10 02:27:37;;;;;;;3.83;1.85;;;;;;;16.98;73.08;99720.97;5056190;28;20059;-90
2022/09/10 02:30:07;;;;;;;4.80;1.30;;;;;;;17.07;73.02;99722.72;5056153;28;20056;-89
2022/09/10 02:32:36;;;;;;;3.00;1.40;;;;;;;17.03;72.88;99720.66;5056315;28;20053;-90
2022/09/10 02:35:03;;;;;;;5.67;1.70;;;;;;;17.08;72.85;99727.16;5057216;28;20053;-90
2022/09/10 02:37:37;;;;;;;3.42;1.70;;;;;;;17.10;72.86;99727.59;5056346;28;20459;-85
2022/09/10 02:40:05;;;;;;;3.03;1.50;;;;;;;17.17;72.94;99730.53;5059384;28;20394;-89
2022/09/10 02:42:37;;;;;;;2.83;1.85;;;;;;;17.18;73.23;99732.97;5056044;28;20063;-87
2022/09/10 02:45:05;;;;;;;3.65;1.80;;;;;;;17.24;73.33;99725.81;5052840;28;20060;-85
2022/09/10 02:47:32;;;;;;;3.30;1.63;;;;;;;17.16;73.47;99721.28;5053004;28;20505;-85
2022/09/10 02:50:01;;;;;;;6.05;1.95;;;;;;;17.18;73.85;99727.34;5053117;28;20052;-85
2022/09/10 02:52:28;;;;;;;4.18;1.77;;;;;;;17.17;73.71;99725.69;5053766;28;20393;-85
2022/09/10 02:54:55;;;;;;;3.83;1.92;;;;;;;17.09;73.78;99720.34;5053005;28;20049;-85
2022/09/10 02:57:23;;;;;;;3.08;1.70;;;;;;;17.08;73.70;99722.34;5053093;28;20052;-85
2022/09/10 02:59:50;;;;;;;4.70;2.00;;;;;;;16.94;74.59;99727.72;5052885;28;20390;-85
2022/09/10 03:02:18;;;;;;;2.83;1.75;;;;;;;16.98;74.65;99723.78;5053334;28;20405;-85
2022/09/10 03:04:45;;;;;;;3.22;1.83;;;;;;;16.95;74.97;99721.72;4998520;28;1529754;-86
2022/09/10 03:07:16;;;;;;;2.05;1.52;;;;;;;17.03;74.42;99720.66;5054252;28;20049;-87
2022/09/10 03:09:43;;;;;;;3.97;1.90;;;;;;;17.04;74.26;99719.47;5054294;28;20053;-87
2022/09/10 03:12:11;;;;;;;2.40;1.52;;;;;;;17.03;74.26;99725.50;5053997;28;20049;-88
2022/09/10 03:14:38;;;;;;;2.80;1.70;;;;;;;16.97;74.01;99716.53;5053694;28;20056;-87
2022/09/10 03:17:05;;;;;;;3.55;1.60;;;;;;;16.94;74.45;99719.28;5054159;28;20060;-86
2022/09/10 03:19:32;;;;;;;4.38;1.92;;;;;;;16.89;74.60;99722.44;5054309;28;20478;-86
2022/09/10 03:22:00;;;;;;;2.88;1.88;;;;;;;16.77;75.13;99718.56;5054367;28;20057;-87
2022/09/10 03:24:29;;;;;;;2.55;1.60;;;;;;;16.70;75.76;99717.66;5054095;28;20060;-87
2022/09/10 03:26:56;;;;;;;2.97;1.50;;;;;;;16.78;75.23;99713.78;5053724;28;20527;-87
2022/09/10 03:29:25;;;;;;;2.75;1.77;;;;;;;16.78;75.25;99713.78;5053421;28;20064;-86
2022/09/10 03:31:53;;;;;;;3.08;1.60;;;;;;;16.81;75.00;99719.47;5055508;28;20048;-86
2022/09/10 03:34:20;;;;;;;6.55;2.72;;;;;;;16.74;75.14;99724.16;5058554;28;20053;-87
2022/09/10 03:36:48;;;;;;;3.17;2.03;;;;;;;16.67;75.51;99719.19;5058009;28;20489;-86
2022/09/10 03:39:17;;;;;;;2.70;1.90;;;;;;;16.72;75.44;99720.91;5057662;28;20057;-87
2022/09/10 03:41:46;;;;;;;2.60;2.03;;;;;;;16.82;75.13;99711.88;5057640;28;20044;-87
2022/09/10 03:44:14;;;;;;;3.65;2.20;;;;;;;16.77;75.00;99724.19;5058115;28;20060;-86
2022/09/10 03:46:41;;;;;;;2.92;1.75;;;;;;;16.88;74.50;99715.16;5057768;28;20049;-87
2022/09/10 03:49:09;;;;;;;2.25;1.83;;;;;;;16.84;74.61;99712.31;5057721;28;20057;-86
2022/09/10 03:51:36;;;;;;;5.75;2.28;;;;;;;16.90;74.21;99716.41;5059046;28;20057;-86
2022/09/10 03:54:04;;;;;;;3.42;2.10;;;;;;;16.91;74.14;99718.03;5058288;28;21941;-86
2022/09/10 03:56:32;;;;;;;2.85;2.50;;;;;;;16.91;74.20;99718.03;5057193;28;20056;-86
2022/09/10 03:59:01;;;;;;;3.00;2.25;;;;;;;16.96;74.11;99728.97;5057302;28;20052;-86
2022/09/10 04:01:28;;;;;;;4.00;2.40;;;;;;;17.02;73.80;99712.59;5057491;28;20115;-86
2022/09/10 04:03:57;;;;;;;3.58;2.35;;;;;;;17.02;73.78;99719.03;5057025;28;20060;-88
2022/09/10 04:06:24;;;;;;;4.53;2.53;;;;;;;16.86;74.04;99729.59;5052002;28;20041;-87
2022/09/10 04:08:52;;;;;;;3.55;2.78;;;;;;;16.89;73.81;99731.66;5057111;28;20497;-86
2022/09/10 04:11:22;;;;;;;3.95;2.80;;;;;;;16.91;73.85;99726.47;5057190;28;20056;-86
2022/09/10 04:13:51;;;;;;;3.03;2.60;;;;;;;16.95;73.80;99732.97;5058225;28;20401;-87
2022/09/10 04:16:22;;;;;;;4.45;2.67;;;;;;;16.76;74.55;99728.22;5057028;28;20057;-86
2022/09/10 04:18:49;;;;;;;4.18;2.83;;;;;;;16.85;74.08;99725.16;5056707;28;20052;-86
2022/09/10 04:21:17;;;;;;;4.80;2.70;;;;;;;16.82;74.33;99737.19;5056541;28;20489;-86
2022/09/10 04:23:44;;;;;;;3.25;2.70;;;;;;;16.86;74.25;99731.59;5056449;28;20045;-87
2022/09/10 04:26:13;;;;;;;3.90;2.60;;;;;;;16.81;74.39;99735.53;5057045;28;20059;-87
2022/09/10 04:28:40;;;;;;;5.75;3.00;;;;;;;16.72;74.85;99732.16;5057050;28;20064;-86
2022/09/10 04:31:08;;;;;;;2.97;2.33;;;;;;;16.80;74.89;99731.09;5056703;28;20052;-87
2022/09/10 04:33:37;;;;;;;5.22;2.50;;;;;;;16.84;74.69;99729.19;5056197;28;20045;-87
2022/09/10 04:36:05;;;;;;;3.28;2.10;;;;;;;16.78;75.00;99731.47;5057115;28;20053;-87
2022/09/10 04:38:33;;;;;;;3.63;2.67;;;;;;;16.83;74.82;99721.91;5056856;28;20053;-87
2022/09/10 04:41:01;;;;;;;4.13;2.90;;;;;;;16.88;74.56;99720.78;5057336;28;20059;-87
2022/09/10 04:43:28;;;;;;;3.42;2.72;;;;;;;17.00;74.14;99724.22;5056024;28;20049;-88
2022/09/10 04:45:56;;;;;;;2.92;2.50;;;;;;;16.95;74.51;99730.16;5057574;28;20056;-87
2022/09/10 04:48:23;;;;;;;3.60;2.50;;;;;;;16.85;75.49;99730.78;5056554;28;20056;-87
2022/09/10 04:50:52;;;;;;;2.78;2.47;;;;;;;16.95;75.27;99738.63;5056435;28;20053;-87
2022/09/10 04:53:20;;;;;;;5.15;2.90;;;;;;;16.82;77.32;99732.38;5056100;28;20445;-84
2022/09/10 04:55:50;;;;;;;3.17;2.78;;;;;;;16.72;77.11;99726.53;5048583;28;20406;-85
2022/09/10 04:58:17;;;;;;;5.40;3.95;;;;;;;16.68;77.35;99737.69;5052377;28;20056;-87
2022/09/10 05:00:44;;;;;;;3.60;3.03;;;;;;;16.72;77.08;99732.94;5056494;28;20063;-85
2022/09/10 05:03:13;;;;;;;3.83;2.75;;;;;;;16.71;77.10;99736.94;5056270;28;20053;-87
2022/09/10 05:05:41;;;;;;;3.25;2.58;;;;;;;16.54;77.68;99737.44;5056614;28;20459;-86
2022/09/10 05:08:11;;;;;;;3.95;2.40;;;;;;;16.54;77.61;99734.63;5055244;28;20057;-86
2022/09/10 05:10:40;;;;;;;2.78;2.35;;;;;;;16.51;78.00;99743.81;5056591;28;20060;-87
2022/09/10 05:13:07;;;;;;;3.10;2.30;;;;;;;16.58;77.76;99741.13;5056151;28;20064;-87
2022/09/10 05:15:37;;;;;;;3.78;2.33;;;;;;;16.49;77.55;99741.38;5056771;28;20064;-87
2022/09/10 05:18:04;;;;;;;3.53;2.65;;;;;;;16.50;77.93;99742.97;5055775;28;20060;-86
2022/09/10 05:20:31;;;;;;;4.20;2.10;;;;;;;16.42;77.83;99746.84;5055490;28;20053;-85
2022/09/10 05:22:58;;;;;;;4.13;2.50;;;;;;;16.40;77.96;99744.41;5055439;28;20053;-88
2022/09/10 05:25:27;;;;;;;2.97;2.10;;;;;;;16.42;78.08;99746.84;5048158;28;20053;-86
2022/09/10 05:27:55;;;;;;;3.43;1.97;;;;;;;16.42;77.80;99741.22;5070087;28;20056;-86
2022/09/10 05:30:22;;;;;;;3.72;2.50;;;;;;;16.37;78.12;99744.34;5075758;28;20052;-87
2022/09/10 05:32:52;;;;;;;5.05;2.42;;;;;;;16.37;78.18;99744.34;5044535;28;20057;-85
2022/09/10 05:35:19;;;;;;;2.45;2.10;;;;;;;16.51;77.63;99741.00;5035437;28;20478;-88
2022/09/10 05:37:47;;;;;;;3.03;2.33;;;;;;;16.44;77.59;99747.28;5044370;28;20053;-86
2022/09/10 05:40:15;;;;;;;3.15;1.92;;;;;;;16.48;77.72;99744.53;5055719;28;20056;-86
2022/09/10 05:42:43;;;;;;;2.78;1.80;;;;;;;16.43;77.88;99745.66;5055458;28;20044;-86
2022/09/10 05:45:11;;;;;;;3.70;1.70;;;;;;;16.49;77.64;99754.63;5055242;28;20056;-86
2022/09/10 05:47:38;;;;;;;3.80;1.95;;;;;;;16.45;77.85;99746.09;5055560;28;20048;-87
2022/09/10 05:50:06;;;;;;;3.50;2.08;;;;;;;16.40;77.82;99752.03;5055513;28;20049;-86
2022/09/10 05:52:34;;;;;;;2.88;2.05;;;;;;;16.51;77.22;99750.25;5055357;28;20052;-86
2022/09/10 05:55:01;;;;;;;3.25;1.63;;;;;;;16.66;76.97;99751.31;5048574;28;20049;-86
2022/09/10 05:57:29;;;;;;;3.85;1.90;;;;;;;16.56;77.39;99758.34;5043160;28;20053;-87
2022/09/10 05:59:58;;;;;;;3.03;2.43;;;;;;;16.67;76.85;99769.00;5034881;28;20053;-87
2022/09/10 06:02:26;;;;;;;4.13;2.25;;;;;;;16.77;76.44;99763.56;5036254;28;20061;-86
2022/09/10 06:04:53;;;;;;;4.30;2.00;;;;;;;16.77;76.36;99763.56;5053917;28;20049;-87
2022/09/10 06:07:20;;;;;;;2.42;1.90;;;;;;;16.94;75.79;99759.47;5054700;28;20053;-87
2022/09/10 06:09:47;;;;;;;2.58;2.05;;;;;;;16.64;76.06;99768.56;5047588;28;20053;-87
2022/09/10 06:12:16;;;;;;;2.83;2.20;;;;;;;16.82;75.80;99770.94;5051379;28;20051;-81
2022/09/10 06:14:43;;;;;;;3.53;2.55;;;;;;;16.98;75.68;99774.41;5048813;28;20417;-87
2022/09/10 06:17:12;;;;;;;6.38;3.38;;;;;;;16.59;82.92;99780.13;5052946;28;20059;-86
2022/09/10 06:19:39;;;;;;;32.78;6.22;;;;;;;15.95;90.38;99781.59;5053828;28;20049;-85
2022/09/10 06:22:09;;;;;;;13.98;6.65;;;;;;;15.51;91.21;99779.78;5047857;28;20055;-86
2022/09/10 06:24:37;;;;;;;14.15;7.05;;;;;;;15.60;90.96;99780.41;5049489;28;20517;-86
2022/09/10 06:27:05;;;;;;;11.18;7.85;;;;;;;15.58;92.21;99779.13;5049089;28;20057;-84
2022/09/10 06:29:35;;;;;;;9.20;7.18;;;;;;;15.68;90.08;99792.59;5047339;28;20041;-87
2022/09/10 06:32:03;;;;;;;8.95;6.43;;;;;;;15.77;89.57;99787.66;5052462;28;20051;-88
2022/09/10 06:34:31;;;;;;;11.50;7.75;;;;;;;15.91;89.58;99787.13;5053239;28;20045;-87
2022/09/10 06:37:02;;;;;;;8.50;6.73;;;;;;;15.95;87.83;99784.41;5051531;28;20049;-87
2022/09/10 06:39:29;;;;;;;8.77;7.70;;;;;;;15.95;88.01;99788.03;5051759;28;20479;-87
2022/09/10 06:41:56;;;;;;;9.93;7.00;;;;;;;15.92;87.79;99793.59;5053176;28;20051;-87
2022/09/10 06:44:25;;;;;;;8.45;6.20;;;;;;;15.88;87.33;99793.50;5052963;28;20053;-87
2022/09/10 06:46:56;;;;;;;9.82;6.05;;;;;;;15.98;86.58;99794.91;5035356;28;20595;-88
2022/09/10 06:49:24;;;;;;;9.48;6.68;;;;;;;15.97;86.23;99798.91;5037936;28;20052;-88
2022/09/10 06:51:58;;;;;;;7.65;6.85;;;;;;;16.11;86.39;99799.22;5054631;28;20063;-87
2022/09/10 06:54:25;;;;;;;6.55;5.75;;;;;;;16.17;85.41;99796.94;5051055;28;20045;-87
2022/09/10 06:56:52;;;;;;;7.55;6.43;;;;;;;16.30;84.90;99794.78;5053343;28;20063;-87
2022/09/10 06:59:20;;;;;;;7.90;5.40;;;;;;;16.45;84.55;99796.69;5052604;28;20056;-87
2022/09/10 07:01:48;;;;;;;7.30;6.60;;;;;;;16.55;84.62;99798.91;5046119;28;20045;-88
2022/09/10 07:04:15;;;;;;;9.00;6.50;;;;;;;16.64;84.03;99795.88;5053359;28;20068;-87
2022/09/10 07:06:44;;;;;;;7.05;6.35;;;;;;;16.86;84.00;99787.84;5054704;28;20405;-87
2022/09/10 07:09:14;;;;;;;6.88;5.68;;;;;;;17.02;82.31;99792.19;5053064;28;20063;-87
2022/09/10 07:11:41;;;;;;;6.07;5.40;;;;;;;16.95;81.21;99797.69;5052637;28;20049;-86
2022/09/10 07:14:11;;;;;;;7.43;4.60;;;;;;;17.26;80.29;99801.44;5053880;28;20053;-87
2022/09/10 07:16:40;;;;;;;;;;;;;;;17.20;80.59;99806.56;5053186;28;20056;-87
2022/09/10 07:19:08;;;;;;;5.50;4.40;;;;;;;17.33;79.53;99806.38;5050953;28;19928;-87
2022/09/10 07:21:36;;;;;;;5.72;4.97;;;;;;;17.63;78.93;99801.63;5054026;28;20413;-86
2022/09/10 07:24:05;;;;;;;6.28;4.93;;;;;;;17.62;77.58;99807.66;5051978;28;20061;-85
2022/09/10 07:26:34;;;;;;;8.07;4.95;;;;;;;17.76;76.59;99812.69;5044583;28;20056;-85
2022/09/10 07:29:01;;;;;;;4.93;4.30;;;;;;;17.69;76.51;99809.75;5049122;28;20490;-85
2022/09/10 07:31:30;;;;;;;4.18;3.28;;;;;;;18.13;75.40;99800.75;5034089;28;20076;-86
2022/09/10 07:33:58;;;;;;;5.53;4.40;;;;;;;18.31;75.47;99810.28;5041134;28;20052;-86
2022/09/10 07:36:25;;;;;;;4.57;4.05;;;;;;;18.40;74.85;99807.16;5034528;28;20512;-85
2022/09/10 07:39:00;;;;;;;5.40;4.00;;;;;;;18.41;73.65;99809.56;5048231;28;20338;-85
2022/09/10 07:41:29;;;;;;;6.45;3.97;;;;;;;18.11;74.06;99818.06;5038779;28;20064;-87
2022/09/10 07:43:58;;;;;;;4.30;3.50;;;;;;;18.20;74.08;99817.75;5047913;28;20064;-87
2022/09/10 07:46:27;;;;;;;3.30;3.00;;;;;;;18.08;74.27;99816.00;5052599;28;20045;-87
2022/09/10 07:48:57;;;;;;;4.63;3.45;;;;;;;18.16;74.36;99826.16;5053116;28;20060;-86
2022/09/10 07:51:26;;;;;;;4.35;3.88;;;;;;;18.09;74.34;99825.28;5034236;28;20057;-86
2022/09/10 07:53:57;;;;;;;4.15;3.08;;;;;;;17.95;74.67;99829.50;5043259;28;20048;-86
2022/09/10 07:56:24;;;;;;;5.07;3.28;;;;;;;17.91;74.45;99820.19;5050542;28;20049;-85
2022/09/10 07:58:56;;;;;;;5.32;3.45;;;;;;;17.80;75.37;99830.44;5048394;28;20053;-86
2022/09/10 08:01:25;;;;;;;4.70;3.15;;;;;;;17.67;74.98;99831.88;5052886;28;20056;-85
2022/09/10 08:03:56;;;;;;;3.55;3.00;;;;;;;17.55;75.22;99833.69;5050915;28;20057;-85
2022/09/10 08:06:23;;;;;;;6.35;3.40;;;;;;;17.70;75.59;99831.94;5052187;28;21350;-86
2022/09/10 08:08:51;;;;;;;4.40;3.17;;;;;;;17.79;75.39;99835.28;5051208;28;20052;-85
2022/09/10 08:11:20;;;;;;;4.95;2.80;;;;;;;17.89;74.39;99833.03;5051606;28;20057;-88
2022/09/10 08:13:50;;;;;;;6.93;3.92;;;;;;;18.09;74.10;99831.72;5050606;28;20053;-87
2022/09/10 08:16:19;;;;;;;3.72;2.67;;;;;;;18.36;73.69;99837.31;5053122;28;20057;-87
2022/09/10 08:18:50;;;;;;;4.75;3.15;;;;;;;19.26;71.54;99836.34;5057386;28;20367;-88
2022/09/10 08:21:20;;;;;;;4.43;3.22;;;;;;;20.60;68.87;99838.88;5057097;28;20413;-87
2022/09/10 08:23:49;;;;;;;4.60;2.33;;;;;;;21.27;63.98;99829.75;5055977;28;20516;-87
2022/09/10 08:26:17;;;;;;;2.45;1.98;;;;;;;22.27;60.88;99828.88;5055303;28;20060;-88
2022/09/10 08:28:44;;;;;;;4.70;2.03;;;;;;;22.64;59.65;99838.06;5056122;28;20056;-89
2022/09/10 08:31:12;;;;;;;2.33;1.77;;;;;;;22.28;57.46;99833.34;5057124;28;20057;-89
2022/09/10 08:33:40;;;;;;;2.35;1.88;;;;;;;22.06;58.63;99831.75;5055209;28;20061;-88
2022/09/10 08:36:12;;;;;;;2.63;2.10;;;;;;;21.86;58.75;99839.88;5056433;28;20055;-87
2022/09/10 08:38:41;;;;;;;2.92;2.20;;;;;;;21.56;59.29;99837.47;5039297;28;20048;-88
2022/09/10 08:41:12;;;;;;;2.50;2.10;;;;;;;21.46;60.49;99837.06;5050414;28;20064;-88
2022/09/10 08:43:45;;;;;;;3.08;2.28;;;;;;;21.35;60.82;99835.41;5055170;28;20053;-86
2022/09/10 08:46:24;;;;;;;2.97;2.00;;;;;;;20.92;62.06;99841.81;5054124;28;20053;-87
2022/09/10 08:49:04;;;;;;;2.75;2.03;;;;;;;20.92;62.38;99836.16;5054983;28;20049;-87
2022/09/10 08:51:42;;;;;;;2.60;2.40;;;;;;;20.66;62.23;99840.94;5055096;28;20049;-88
2022/09/10 08:54:14;;;;;;;2.95;2.50;;;;;;;20.33;64.58;99849.66;5048158;28;20056;-87
2022/09/10 08:56:45;;;;;;;4.03;2.53;;;;;;;20.34;64.25;99854.09;5054095;28;20424;-89
2022/09/10 08:59:21;;;;;;;3.95;2.88;;;;;;;20.32;64.30;99845.19;5057415;28;20052;-89
2022/09/10 09:01:58;;;;;;;4.90;2.85;;;;;;;20.42;64.64;99850.88;5057180;28;20072;-89
2022/09/10 09:04:40;;;;;;;4.10;2.80;;;;;;;20.74;64.25;99846.59;5057671;28;20497;-89
2022/09/10 09:07:14;;;;;;;3.70;2.42;;;;;;;20.62;63.84;99854.25;5055511;28;20048;-88
2022/09/10 09:09:42;;;;;;;3.55;2.20;;;;;;;20.91;62.95;99851.50;5036638;28;20401;-87
2022/09/10 09:12:20;;;;;;;2.53;2.20;;;;;;;21.13;61.49;99854.41;5047170;28;20059;-89
2022/09/10 09:14:58;;;;;;;2.80;2.22;;;;;;;21.79;59.88;99840.69;5055747;28;20071;-89
2022/09/10 09:17:47;;;;;;;4.82;2.90;;;;;;;21.68;58.87;99851.22;5055069;28;20052;-88
2022/09/10 09:20:17;;;;;;;2.83;2.10;;;;;;;21.55;59.48;99841.53;5054176;28;20397;-86
2022/09/10 09:22:52;;;;;;;3.20;2.40;;;;;;;21.86;57.91;99837.84;5055492;28;20057;-86
2022/09/10 09:25:26;;;;;;;2.78;2.38;;;;;;;22.07;57.73;99839.03;5055254;28;20055;-88
2022/09/10 09:27:56;;;;;;;5.07;2.70;;;;;;;22.27;58.89;99837.38;5054662;28;20045;-86
2022/09/10 09:30:26;;;;;;;3.45;2.03;;;;;;;23.35;55.59;99828.34;5052864;28;20064;-87
2022/09/10 09:32:57;;;;;;;3.03;2.10;;;;;;;23.07;53.72;99835.81;5055108;28;20063;-87
2022/09/10 09:35:29;;;;;;;3.05;2.55;;;;;;;22.63;55.13;99839.28;5054870;28;20067;-87
2022/09/10 09:38:16;;;;;;;6.00;2.35;;;;;;;25.02;50.35;99838.34;5052589;28;20504;-86
2022/09/10 09:40:47;;;;;;;2.35;1.90;;;;;;;26.16;46.20;99834.84;5048209;28;20049;-86
2022/09/10 09:43:24;;;;;;;2.78;1.70;;;;;;;26.81;45.91;99836.44;5053423;28;20485;-86
2022/09/10 09:45:52;;;;;;;3.03;2.25;;;;;;;26.90;44.82;99836.66;5051880;28;20045;-86
2022/09/10 09:48:23;;;;;;;2.88;1.83;;;;;;;26.44;45.58;99846.97;5053787;28;20442;-86
2022/09/10 09:50:53;;;;;;;3.78;1.90;;;;;;;25.78;46.15;99834.31;5054052;28;20061;-85
2022/09/10 09:53:25;;;;;;;2.47;2.22;;;;;;;25.21;47.32;99838.91;5054102;28;20057;-87
2022/09/10 09:55:54;;;;;;;3.13;2.13;;;;;;;25.11;47.66;99834.94;5052475;28;20064;-86
2022/09/10 09:58:33;;;;;;;3.30;2.17;;;;;;;24.66;49.00;99835.97;5053964;28;20064;-84
2022/09/10 10:01:20;;;;;;;3.75;2.30;;;;;;;23.74;51.44;99846.28;5051596;28;20053;-84
2022/09/10 10:03:53;;;;;;;3.63;2.25;;;;;;;23.73;51.01;99838.97;5052626;28;20057;-84
2022/09/10 10:06:25;;;;;;;3.00;2.20;;;;;;;23.57;52.72;99831.00;5053268;28;20045;-84
2022/09/10 10:09:05;;;;;;;3.53;2.30;;;;;;;22.87;53.70;99834.72;5052319;28;20049;-84
2022/09/10 10:11:47;;;;;;;3.05;2.28;;;;;;;22.97;53.36;99833.00;5051784;28;20056;-84
2022/09/10 10:14:23;;;;;;;4.00;2.90;;;;;;;22.52;54.04;99847.84;5047395;28;20049;-85
2022/09/10 10:16:53;;;;;;;4.18;2.67;;;;;;;22.16;55.07;99845.09;5051657;28;20048;-84
2022/09/10 10:19:27;;;;;;;;;;;;;;;21.88;55.92;99843.94;5053503;28;20155;-84
2022/09/10 10:21:54;;;;;;;5.55;3.30;;;;;;;21.63;56.71;99837.47;5053612;28;19921;-84
2022/09/10 10:24:33;;;;;;;5.47;3.70;;;;;;;21.03;58.21;99828.47;5046402;28;20052;-85
2022/09/10 10:27:00;;;;;;;3.72;3.30;;;;;;;21.28;58.17;99827.72;5051509;28;20409;-85
2022/09/10 10:29:28;;;;;;;5.18;3.42;;;;;;;21.11;57.97;99834.97;5050509;28;20061;-86
2022/09/10 10:31:56;;;;;;;4.07;3.22;;;;;;;20.98;58.74;99823.22;5054003;28;20053;-85
2022/09/10 10:34:51;;;;;;;4.68;3.40;;;;;;;20.62;59.83;99819.47;5053931;28;20056;-86
2022/09/10 10:37:33;;;;;;;6.18;3.80;;;;;;;20.48;60.49;99829.50;5054028;28;20053;-85
2022/09/10 10:40:15;;;;;;;4.68;3.72;;;;;;;20.30;60.87;99820.13;5053096;28;20512;-86
2022/09/10 10:42:49;;;;;;;4.97;3.75;;;;;;;20.36;60.80;99814.91;5060023;28;20482;-86
2022/09/10 10:45:36;;;;;;;4.72;3.83;;;;;;;19.99;62.04;99815.91;5056187;28;20056;-86
2022/09/10 10:48:11;;;;;;;4.00;3.47;;;;;;;20.05;62.62;99814.34;5053879;28;20049;-86
2022/09/10 10:50:53;;;;;;;5.88;3.95;;;;;;;20.00;63.22;99817.53;5054479;28;20057;-85
2022/09/10 10:53:36;;;;;;;4.80;3.50;;;;;;;20.07;63.01;99811.91;5053274;28;20068;-85
2022/09/10 10:56:12;;;;;;;7.32;4.57;;;;;;;19.90;65.42;99813.44;5033501;28;20049;-85
2022/09/10 10:59:04;;;;;;;6.55;5.80;;;;;;;19.29;73.53;99814.97;5033821;28;20049;-86
2022/09/10 11:01:37;;;;;;;14.13;10.73;;;;;;;19.10;77.06;99816.00;5033826;28;20054;-86
2022/09/10 11:04:24;;;;;;;12.75;11.45;;;;;;;18.43;83.10;99812.00;5042423;28;20056;-87
2022/09/10 11:06:58;;;;;;;16.50;11.73;;;;;;;17.76;91.06;99807.03;5054449;28;20055;-86
2022/09/10 11:09:31;;;;;;;19.05;8.32;;;;;;;17.08;96.81;99811.59;5053075;28;20055;-86
2022/09/10 11:12:05;;;;;;;30.17;13.00;;;;;;;16.79;100.00;99816.63;5054414;28;20401;-87
2022/09/10 11:14:40;;;;;;;22.05;16.45;;;;;;;16.89;100.00;99813.25;5054428;28;20064;-88
2022/09/10 11:17:15;;;;;;;13.60;11.73;;;;;;;16.80;99.60;99821.94;5053984;28;20048;-87
2022/09/10 11:19:48;;;;;;;17.23;13.73;;;;;;;16.65;96.40;99819.97;5058061;28;20478;-87
2022/09/10 11:22:22;;;;;;;19.90;13.88;;;;;;;16.69;98.08;99817.25;5053153;28;20421;-87
2022/09/10 11:24:54;;;;;;;19.77;14.93;;;;;;;16.57;100.00;99824.66;5052277;28;20045;-87
2022/09/10 11:27:28;;;;;;;52.42;16.60;;;;;;;16.39;100.00;99823.47;5053348;28;20501;-88
2022/09/10 11:30:03;;;;;;;34.65;17.42;;;;;;;16.28;100.00;99825.25;5055266;28;20061;-87
2022/09/10 11:32:37;;;;;;;20.88;14.73;;;;;;;16.00;100.00;99817.81;5054754;28;20071;-86
2022/09/10 11:35:12;;;;;;;52.25;21.42;;;;;;;15.87;100.00;99833.16;5052893;28;20421;-86
2022/09/10 11:37:55;;;;;;;24.88;13.35;;;;;;;15.57;100.00;99826.03;5052731;28;20045;-86
2022/09/10 11:40:31;;;;;;;15.80;11.88;;;;;;;15.67;100.00;99833.09;5052852;28;20416;-86
2022/09/10 11:43:09;;;;;;;37.10;15.32;;;;;;;15.45;100.00;99831.75;5053245;28;20049;-85
2022/09/10 11:45:44;;;;;;;28.55;16.90;;;;;;;15.66;100.00;99825.03;5052784;28;20057;-85
2022/09/10 11:48:18;;;;;;;27.20;14.18;;;;;;;15.59;100.00;99811.66;5051237;28;20049;-84
2022/09/10 11:50:50;;;;;;;25.48;14.82;;;;;;;15.55;100.00;99805.13;5052262;28;20512;-84